Amarant — SPG3207 — position and weather

sailwx.info

Track history (hours):
 
Tides and Currents Weather Stations Pressure Air Temp Water Temp Dewpoint Dewpoint Depression Visibility Wind Speed Wind Dir Waves Ship Positions

Amarant

Last reported at 2014-Aug-05 04:13 UTC. Time now 2014-Aug-23 11:32 UTC.
Position N 57°27' E 017°54'.
Warning: this ship's position is 18 days out of date.

Length 14 m.

Type: Sailing vessel. MMSI: 261015190.

Date/timePositionNaut miles runAvg speedWind from/ knotsBaromVisibWave heightAir tempDewpointWater temp
2014-Aug-05 04:13N 57°27' E 017°54'2 3.0
2014-Aug-05 03:26N 57°25' E 017°53'6 2.6
2014-Aug-05 01:09N 57°19' E 017°54'9 5.2
2014-Aug-04 23:30N 57°11' E 017°49'5 5.4
2014-Aug-04 22:31N 57°06' E 017°47'83 4.6
2014-Aug-04 04:33N 55°58' E 016°20'6 6.1
2014-Aug-04 03:33N 55°52' E 016°16'34 6.3
2014-Aug-03 22:12N 55°24' E 015°44'12 4.4
2014-Aug-03 19:32N 55°16' E 015°28'4 3.9
2014-Aug-03 18:33N 55°13' E 015°24'6 5.0
2014-Aug-03 17:27N 55°09' E 015°19'55 4.6
2014-Aug-03 05:32N 54°21' E 014°33'4 4.5
2014-Aug-03 04:33N 54°17' E 014°29'5 4.6
2014-Aug-03 03:33N 54°13' E 014°24'6 4.8
2014-Aug-03 02:23N 54°09' E 014°19'4 4.7
2014-Aug-03 01:33N 54°05' E 014°16'5 4.7
2014-Aug-03 00:33N 54°00' E 014°15'5 5.2
2014-Aug-02 23:33N 53°55' E 014°17'5 4.5
2014-Aug-02 22:33N 53°51' E 014°17'5 5.3
2014-Aug-02 21:33N 53°47' E 014°23'6 5.5
2014-Aug-02 20:29N 53°42' E 014°29'13 5.5
2014-Aug-02 18:11N 53°31' E 014°38'4 5.7
2014-Aug-02 17:33N 53°27' E 014°36'  
2014-Jul-30 02:33N 53°28' E 014°36'11 5.2
2014-Jul-30 00:33N 53°38' E 014°34'6 5.6
2014-Jul-29 23:33N 53°43' E 014°28'5 5.3
2014-Jul-29 22:33N 53°47' E 014°23'6 5.9
2014-Jul-29 21:33N 53°52' E 014°17'5 5.2
2014-Jul-29 20:34N 53°57' E 014°16'7 6.7
2014-Jul-29 19:30N 54°03' E 014°11'7 7.6
2014-Jul-29 18:33N 54°10' E 014°06'8 6.8
2014-Jul-29 17:24N 54°17' E 014°00'6 6.7
2014-Jul-29 16:32N 54°22' E 013°56'6 6.4
2014-Jul-29 15:33N 54°28' E 013°50'7 6.8
2014-Jul-29 14:30N 54°34' E 013°45'7 7.3
2014-Jul-29 13:33N 54°40' E 013°38'7 6.7
2014-Jul-29 12:33N 54°45' E 013°32'6 5.8
2014-Jul-29 11:32N 54°50' E 013°26'6 5.8
2014-Jul-29 10:33N 54°55' E 013°21'33 6.1
2014-Jul-29 05:08N 55°21' E 012°46'3 5.9
2014-Jul-29 04:33N 55°24' E 012°46'6 6.1
2014-Jul-29 03:33N 55°30' E 012°43'7 6.7
2014-Jul-29 02:33N 55°37' E 012°42'7 6.8
2014-Jul-29 01:33N 55°44' E 012°40'6 6.0
2014-Jul-29 00:33N 55°50' E 012°38'6 5.9
2014-Jul-28 23:33N 55°55' E 012°36'6 6.0
2014-Jul-28 22:33N 56°01' E 012°37'1 1.2
2014-Jul-28 21:32N 56°03' E 012°37'4 4.1
2014-Jul-28 20:33N 56°06' E 012°32'6 5.8
2014-Jul-28 19:31N 56°11' E 012°26'6 6.1
2014-Jul-28 18:31N 56°15' E 012°20'6 6.0
2014-Jul-28 17:30N 56°21' E 012°14'6 5.6
2014-Jul-28 16:24N 56°26' E 012°08'24 6.0
2014-Jul-28 12:28N 56°47' E 011°48'35 5.7
2014-Jul-28 06:22N 57°18' E 011°19'5 5.6
2014-Jul-28 05:33N 57°22' E 011°16'167 5.4
2014-Jul-26 22:27N 58°08' E 006°15'5 5.1
2014-Jul-26 21:33N 58°12' E 006°09'6 5.6
2014-Jul-26 20:33N 58°16' E 006°03'6 5.6
2014-Jul-26 19:33N 58°21' E 005°57'5 5.1
2014-Jul-26 18:33N 58°25' E 005°51'5 4.9
2014-Jul-26 17:33N 58°28' E 005°44'27 5.5
2014-Jul-26 12:33N 58°55' E 005°32'6 5.7
2014-Jul-26 11:33N 59°01' E 005°33'4 3.9
2014-Jul-26 10:33N 59°01' E 005°40'3 2.6
2014-Jul-26 09:31N 58°58' E 005°44'0 0.0
2014-Jul-26 08:31N 58°58' E 005°44'0 0.0
2014-Jul-26 07:31N 58°58' E 005°44'0 0.0
2014-Jul-26 06:31N 58°58' E 005°44'0 0.0
2014-Jul-26 05:31N 58°58' E 005°44'0 0.0
2014-Jul-26 04:31N 58°58' E 005°44'  
Track history (hours):
 
Tides and Currents Weather Stations Pressure Air Temp Water Temp Dewpoint Dewpoint Depression Visibility Wind Speed Wind Dir Waves Ship Positions

Amarant

Last reported at 2014-Aug-05 04:13 UTC. Time now 2014-Aug-23 11:32 UTC.
Position N 57°27' E 017°54'.
Warning: this ship's position is 18 days out of date.

Length 14 m.

Type: Sailing vessel. MMSI: 261015190.

Date/timePositionNaut miles runAvg speedWind from/ knotsBaromVisibWave heightAir tempDewpointWater temp
2014-Aug-05 04:13N 57°27' E 017°54'2 3.0
2014-Aug-05 03:26N 57°25' E 017°53'6 2.6
2014-Aug-05 01:09N 57°19' E 017°54'9 5.2
2014-Aug-04 23:30N 57°11' E 017°49'5 5.4
2014-Aug-04 22:31N 57°06' E 017°47'83 4.6
2014-Aug-04 04:33N 55°58' E 016°20'6 6.1
2014-Aug-04 03:33N 55°52' E 016°16'34 6.3
2014-Aug-03 22:12N 55°24' E 015°44'12 4.4
2014-Aug-03 19:32N 55°16' E 015°28'4 3.9
2014-Aug-03 18:33N 55°13' E 015°24'6 5.0
2014-Aug-03 17:27N 55°09' E 015°19'55 4.6
2014-Aug-03 05:32N 54°21' E 014°33'4 4.5
2014-Aug-03 04:33N 54°17' E 014°29'5 4.6
2014-Aug-03 03:33N 54°13' E 014°24'6 4.8
2014-Aug-03 02:23N 54°09' E 014°19'4 4.7
2014-Aug-03 01:33N 54°05' E 014°16'5 4.7
2014-Aug-03 00:33N 54°00' E 014°15'5 5.2
2014-Aug-02 23:33N 53°55' E 014°17'5 4.5
2014-Aug-02 22:33N 53°51' E 014°17'5 5.3
2014-Aug-02 21:33N 53°47' E 014°23'6 5.5
2014-Aug-02 20:29N 53°42' E 014°29'13 5.5
2014-Aug-02 18:11N 53°31' E 014°38'4 5.7
2014-Aug-02 17:33N 53°27' E 014°36'  
2014-Jul-30 02:33N 53°28' E 014°36'11 5.2
2014-Jul-30 00:33N 53°38' E 014°34'6 5.6
2014-Jul-29 23:33N 53°43' E 014°28'5 5.3
2014-Jul-29 22:33N 53°47' E 014°23'6 5.9
2014-Jul-29 21:33N 53°52' E 014°17'5 5.2
2014-Jul-29 20:34N 53°57' E 014°16'7 6.7
2014-Jul-29 19:30N 54°03' E 014°11'7 7.6
2014-Jul-29 18:33N 54°10' E 014°06'8 6.8
2014-Jul-29 17:24N 54°17' E 014°00'6 6.7
2014-Jul-29 16:32N 54°22' E 013°56'6 6.4
2014-Jul-29 15:33N 54°28' E 013°50'7 6.8
2014-Jul-29 14:30N 54°34' E 013°45'7 7.3
2014-Jul-29 13:33N 54°40' E 013°38'7 6.7
2014-Jul-29 12:33N 54°45' E 013°32'6 5.8
2014-Jul-29 11:32N 54°50' E 013°26'6 5.8
2014-Jul-29 10:33N 54°55' E 013°21'33 6.1
2014-Jul-29 05:08N 55°21' E 012°46'3 5.9
2014-Jul-29 04:33N 55°24' E 012°46'6 6.1
2014-Jul-29 03:33N 55°30' E 012°43'7 6.7
2014-Jul-29 02:33N 55°37' E 012°42'7 6.8
2014-Jul-29 01:33N 55°44' E 012°40'6 6.0
2014-Jul-29 00:33N 55°50' E 012°38'6 5.9
2014-Jul-28 23:33N 55°55' E 012°36'6 6.0
2014-Jul-28 22:33N 56°01' E 012°37'1 1.2
2014-Jul-28 21:32N 56°03' E 012°37'4 4.1
2014-Jul-28 20:33N 56°06' E 012°32'6 5.8
2014-Jul-28 19:31N 56°11' E 012°26'6 6.1
2014-Jul-28 18:31N 56°15' E 012°20'6 6.0
2014-Jul-28 17:30N 56°21' E 012°14'6 5.6
2014-Jul-28 16:24N 56°26' E 012°08'24 6.0
2014-Jul-28 12:28N 56°47' E 011°48'35 5.7
2014-Jul-28 06:22N 57°18' E 011°19'5 5.6
2014-Jul-28 05:33N 57°22' E 011°16'167 5.4
2014-Jul-26 22:27N 58°08' E 006°15'5 5.1
2014-Jul-26 21:33N 58°12' E 006°09'6 5.6
2014-Jul-26 20:33N 58°16' E 006°03'6 5.6
2014-Jul-26 19:33N 58°21' E 005°57'5 5.1
2014-Jul-26 18:33N 58°25' E 005°51'5 4.9
2014-Jul-26 17:33N 58°28' E 005°44'27 5.5
2014-Jul-26 12:33N 58°55' E 005°32'6 5.7
2014-Jul-26 11:33N 59°01' E 005°33'4 3.9
2014-Jul-26 10:33N 59°01' E 005°40'3 2.6
2014-Jul-26 09:31N 58°58' E 005°44'0 0.0
2014-Jul-26 08:31N 58°58' E 005°44'0 0.0
2014-Jul-26 07:31N 58°58' E 005°44'0 0.0
2014-Jul-26 06:31N 58°58' E 005°44'0 0.0
2014-Jul-26 05:31N 58°58' E 005°44'0 0.0
2014-Jul-26 04:31N 58°58' E 005°44'  

Dump ship's entire track history